createdAt,value
2022-12-01T02:01:38.494Z,2.76
2022-12-01T02:02:45.632Z,2.71
2022-12-01T02:03:51.280Z,2.79
2022-12-01T02:05:02.523Z,2.80
2022-12-01T02:06:07.650Z,2.78
2022-12-01T02:07:12.777Z,2.88
2022-12-01T02:08:15.012Z,2.88
2022-12-01T02:09:17.206Z,2.93
2022-12-01T02:10:24.074Z,2.89
2022-12-01T02:11:32.206Z,2.90
2022-12-01T02:13:00.929Z,2.89
2022-12-01T02:14:36.709Z,2.90
2022-12-01T02:16:10.790Z,2.94
2022-12-01T02:17:45.194Z,2.98
2022-12-01T02:19:00.023Z,2.88
2022-12-01T02:20:40.453Z,2.92
2022-12-01T02:21:51.528Z,2.92
2022-12-01T02:23:11.096Z,2.92
2022-12-01T02:24:16.017Z,2.92
2022-12-01T02:25:35.738Z,2.89
2022-12-01T02:26:50.251Z,2.84
2022-12-01T02:28:19.975Z,2.92
2022-12-01T02:30:01.697Z,2.96
2022-12-01T02:31:24.116Z,2.93
2022-12-01T02:32:56.764Z,2.93
2022-12-01T02:34:22.947Z,2.77
2022-12-01T02:35:36.191Z,2.88
2022-12-01T02:36:47.472Z,2.85
2022-12-01T02:38:13.627Z,2.75
2022-12-01T02:39:43.964Z,2.81
2022-12-01T02:40:50.401Z,2.75
2022-12-01T02:42:02.541Z,2.87
2022-12-01T02:43:14.353Z,2.88
2022-12-01T02:44:29.985Z,2.83
2022-12-01T02:45:58.588Z,2.79
2022-12-01T02:47:15.044Z,2.82
2022-12-01T02:48:28.930Z,2.81
2022-12-01T02:49:36.224Z,2.83
2022-12-01T02:50:40.647Z,2.85
2022-12-01T02:51:44.809Z,2.79
2022-12-01T02:52:47.670Z,2.90
2022-12-01T02:53:50.359Z,2.90
2022-12-01T02:54:53.510Z,2.86
2022-12-01T02:55:58.550Z,2.89
2022-12-01T02:57:00.813Z,2.77
2022-12-01T02:58:12.298Z,2.80
2022-12-01T02:59:15.273Z,2.82
2022-12-01T03:00:18.200Z,2.86
2022-12-01T03:01:57.877Z,2.95
2022-12-01T03:03:21.381Z,2.93
2022-12-01T03:04:32.331Z,2.92
2022-12-01T03:05:43.519Z,3.10
2022-12-01T03:07:12.953Z,2.95
2022-12-01T03:08:46.095Z,2.95
2022-12-01T03:10:03.297Z,3.07
2022-12-01T03:11:05.664Z,3.11
2022-12-01T03:12:20.884Z,3.01
2022-12-01T03:13:59.900Z,2.94
2022-12-01T03:15:47.120Z,2.95
2022-12-01T03:16:53.815Z,3.02
2022-12-01T03:18:08.882Z,3.04
2022-12-01T03:19:48.682Z,3.01
2022-12-01T03:21:06.267Z,3.17
2022-12-01T03:22:14.620Z,3.06
2022-12-01T03:23:23.231Z,2.97
2022-12-01T03:24:31.619Z,2.94
2022-12-01T03:25:34.200Z,2.96
2022-12-01T03:26:38.960Z,2.89
2022-12-01T03:28:13.571Z,2.85
2022-12-01T03:29:13.517Z,2.89
2022-12-01T03:30:16.529Z,2.94
2022-12-01T03:31:23.605Z,3.02
2022-12-01T03:32:39.795Z,2.96
2022-12-01T03:33:55.237Z,2.88
2022-12-01T03:35:11.331Z,2.85
2022-12-01T03:36:20.860Z,2.82
2022-12-01T03:37:45.484Z,2.85
2022-12-01T03:38:55.457Z,2.92
2022-12-01T03:40:00.908Z,3.01
2022-12-01T03:41:14.931Z,2.92
2022-12-01T03:42:26.028Z,2.86
2022-12-01T03:43:34.913Z,2.87
2022-12-01T03:44:45.351Z,2.97
2022-12-01T03:46:02.490Z,2.93
2022-12-01T03:47:12.442Z,2.95
2022-12-01T03:48:14.809Z,2.98
2022-12-01T03:49:18.390Z,2.81
2022-12-01T03:50:21.171Z,2.79
2022-12-01T03:51:30.193Z,2.93
2022-12-01T03:53:07.452Z,2.93
2022-12-01T03:54:22.373Z,2.77
2022-12-01T03:55:34.491Z,2.81
2022-12-01T03:56:43.714Z,2.88
2022-12-01T03:58:01.513Z,2.84
2022-12-01T03:59:08.143Z,2.88
2022-12-01T04:00:11.553Z,2.82
2022-12-01T04:01:16.776Z,2.75
2022-12-01T04:02:19.188Z,2.69
2022-12-01T04:03:25.109Z,2.68
2022-12-01T04:04:27.536Z,2.66
2022-12-01T04:05:30.992Z,2.69
2022-12-01T04:06:33.753Z,2.88
2022-12-01T04:07:37.547Z,2.91
2022-12-01T04:08:39.845Z,2.86
2022-12-01T04:09:42.238Z,2.80
2022-12-01T04:10:44.844Z,2.73
2022-12-01T04:12:05.355Z,2.71
2022-12-01T04:13:12.138Z,2.71
2022-12-01T04:14:14.396Z,2.66
2022-12-01T04:15:17.198Z,2.63
2022-12-01T04:16:19.410Z,2.66
2022-12-01T04:17:21.673Z,2.70
2022-12-01T04:18:23.871Z,2.75
2022-12-01T04:19:26.102Z,2.79
2022-12-01T04:20:28.419Z,2.91
2022-12-01T04:21:30.652Z,2.87
2022-12-01T04:22:33.875Z,2.83
2022-12-01T04:23:54.329Z,2.77
2022-12-01T04:24:56.582Z,2.76
2022-12-01T04:26:04.283Z,2.88
2022-12-01T04:27:06.546Z,2.97
2022-12-01T04:28:08.793Z,2.96
2022-12-01T04:29:11.937Z,2.84
2022-12-01T04:30:14.389Z,2.86
2022-12-01T04:31:16.662Z,2.91
2022-12-01T04:32:18.903Z,2.85
2022-12-01T04:33:21.841Z,2.92
2022-12-01T04:34:24.247Z,2.88
2022-12-01T04:35:26.506Z,2.83
2022-12-01T04:36:34.165Z,3.01
2022-12-01T04:37:36.946Z,2.89
2022-12-01T04:38:39.170Z,2.86
2022-12-01T04:39:42.149Z,2.78
2022-12-01T04:40:44.328Z,2.84
2022-12-01T04:41:46.686Z,2.81
2022-12-01T04:42:48.944Z,2.86
2022-12-01T04:43:54.264Z,2.79
2022-12-01T04:44:56.503Z,2.80
2022-12-01T04:45:58.653Z,2.73
2022-12-01T04:47:00.888Z,2.72
2022-12-01T04:48:03.345Z,2.75
2022-12-01T04:49:06.141Z,2.77
2022-12-01T04:50:08.723Z,2.76
2022-12-01T04:51:10.993Z,2.75
2022-12-01T04:52:13.335Z,2.67
2022-12-01T04:53:15.540Z,2.73
2022-12-01T04:54:18.195Z,2.80
2022-12-01T04:55:22.429Z,2.71
2022-12-01T04:56:24.797Z,2.69
2022-12-01T04:57:27.017Z,2.86
2022-12-01T04:58:30.848Z,2.85
2022-12-01T04:59:33.353Z,2.85
2022-12-01T05:00:35.775Z,2.85
2022-12-01T05:01:38.607Z,2.90
2022-12-01T05:02:43.496Z,2.87
2022-12-01T05:03:49.504Z,2.78
2022-12-01T05:04:51.942Z,2.75
2022-12-01T05:06:05.604Z,2.78
2022-12-01T05:07:08.070Z,2.78
2022-12-01T05:08:10.804Z,2.81
2022-12-01T05:09:17.547Z,2.90
2022-12-01T05:10:20.361Z,2.86
2022-12-01T05:11:23.648Z,2.90
2022-12-01T05:12:26.523Z,2.75
2022-12-01T05:13:29.049Z,2.84
2022-12-01T05:14:31.254Z,2.79
2022-12-01T05:15:33.615Z,2.79
2022-12-01T05:16:36.029Z,2.81
2022-12-01T05:17:38.459Z,2.76
2022-12-01T05:18:41.243Z,2.73
2022-12-01T05:20:02.358Z,2.68
2022-12-01T05:21:07.770Z,2.64
2022-12-01T05:22:10.097Z,2.71
2022-12-01T05:23:16.514Z,2.78
2022-12-01T05:24:20.932Z,2.70
2022-12-01T05:25:23.158Z,2.73
2022-12-01T05:26:25.465Z,2.72
2022-12-01T05:27:27.830Z,2.71
2022-12-01T05:28:31.014Z,2.74
2022-12-01T05:29:33.299Z,2.69
2022-12-01T05:30:35.534Z,2.73
2022-12-01T05:31:39.584Z,2.76
2022-12-01T05:32:41.928Z,2.85
2022-12-01T05:33:44.179Z,2.88
2022-12-01T05:34:46.369Z,2.83
2022-12-01T05:35:49.483Z,2.87
2022-12-01T05:36:51.689Z,2.84
2022-12-01T05:37:53.875Z,2.88
2022-12-01T05:38:56.076Z,2.83
2022-12-01T05:39:58.312Z,2.82
2022-12-01T05:41:00.622Z,2.80
2022-12-01T05:42:03.018Z,2.81
2022-12-01T05:43:06.271Z,2.82
2022-12-01T05:44:08.549Z,2.92
2022-12-01T05:45:10.973Z,3.05
2022-12-01T05:46:13.229Z,3.21
2022-12-01T05:47:15.552Z,3.25
2022-12-01T05:48:17.980Z,3.03
2022-12-01T05:49:20.250Z,3.00
2022-12-01T05:50:24.055Z,3.04
2022-12-01T05:51:26.335Z,3.02
2022-12-01T05:52:28.587Z,2.97
2022-12-01T05:53:31.080Z,2.89
2022-12-01T05:54:33.284Z,2.89
2022-12-01T05:55:35.723Z,2.90
2022-12-01T05:56:37.936Z,2.95
2022-12-01T05:57:40.362Z,2.89
2022-12-01T05:58:42.678Z,2.87
2022-12-01T05:59:44.910Z,3.01
2022-12-01T06:00:47.150Z,3.14
2022-12-01T06:01:49.464Z,3.19
2022-12-01T06:02:51.814Z,3.23
2022-12-01T06:03:54.645Z,3.14
2022-12-01T06:04:57.106Z,3.02
2022-12-01T06:05:59.355Z,3.14
2022-12-01T06:07:01.563Z,3.23
2022-12-01T06:08:04.075Z,3.36
2022-12-01T06:09:06.508Z,3.52
2022-12-01T06:10:09.851Z,3.60
2022-12-01T06:11:12.286Z,3.71
2022-12-01T06:12:14.774Z,3.63
2022-12-01T06:13:17.222Z,3.47
2022-12-01T06:14:19.603Z,3.54
2022-12-01T06:15:21.917Z,3.66
2022-12-01T06:16:24.214Z,3.67
2022-12-01T06:17:26.485Z,3.77
2022-12-01T06:18:31.607Z,3.72
2022-12-01T06:19:33.906Z,3.79
2022-12-01T06:20:36.155Z,3.57
2022-12-01T06:21:38.548Z,3.52
2022-12-01T06:22:40.804Z,3.36
2022-12-01T06:23:43.010Z,3.32
2022-12-01T06:24:45.243Z,3.28
2022-12-01T06:25:47.589Z,3.33
2022-12-01T06:26:49.952Z,3.32
2022-12-01T06:27:57.130Z,3.34
2022-12-01T06:28:59.443Z,3.24
2022-12-01T06:30:02.313Z,3.22
2022-12-01T06:31:04.668Z,3.35
2022-12-01T06:32:06.921Z,3.32
2022-12-01T06:33:09.297Z,3.21
2022-12-01T06:34:11.817Z,3.29
2022-12-01T06:35:14.162Z,3.48
2022-12-01T06:36:16.443Z,3.44
2022-12-01T06:37:18.685Z,3.23
2022-12-01T06:38:21.073Z,3.30
2022-12-01T06:39:23.481Z,3.39
2022-12-01T06:40:25.954Z,3.21
2022-12-01T06:41:28.238Z,3.20
2022-12-01T06:42:32.128Z,3.26
2022-12-01T06:43:38.146Z,3.16
2022-12-01T06:44:40.426Z,3.24
2022-12-01T06:45:42.804Z,3.27
2022-12-01T06:46:45.109Z,3.19
2022-12-01T06:47:48.368Z,3.24
2022-12-01T06:48:50.623Z,3.16
2022-12-01T06:49:53.109Z,3.21
2022-12-01T06:51:01.069Z,3.38
2022-12-01T06:52:03.485Z,3.39
2022-12-01T06:53:05.708Z,3.36
2022-12-01T06:54:07.934Z,3.23
2022-12-01T06:55:10.327Z,3.16
2022-12-01T06:56:12.746Z,3.08
2022-12-01T06:57:15.401Z,3.26
2022-12-01T06:58:18.503Z,3.21
2022-12-01T06:59:21.102Z,3.14
2022-12-01T07:00:23.624Z,3.37
2022-12-01T07:01:26.194Z,3.19
2022-12-01T07:02:28.475Z,3.17
2022-12-01T07:03:30.698Z,3.18
2022-12-01T07:04:32.923Z,3.25
2022-12-01T07:05:35.137Z,3.32
2022-12-01T07:06:37.693Z,3.24
2022-12-01T07:07:40.205Z,3.12
2022-12-01T07:08:42.441Z,3.06
2022-12-01T07:09:44.750Z,3.07
2022-12-01T07:10:56.814Z,3.20
2022-12-01T07:11:59.039Z,3.15
2022-12-01T07:13:01.249Z,3.16
2022-12-01T07:14:03.661Z,3.11
2022-12-01T07:15:08.468Z,3.17
2022-12-01T07:16:11.273Z,3.16
2022-12-01T07:17:13.525Z,3.16
2022-12-01T07:18:15.734Z,3.22
2022-12-01T07:19:18.082Z,3.15
2022-12-01T07:20:20.264Z,3.10
2022-12-01T07:21:22.601Z,3.39
2022-12-01T07:22:29.503Z,3.49
2022-12-01T07:23:34.808Z,3.26
2022-12-01T07:24:37.033Z,3.12
2022-12-01T07:25:39.238Z,3.13
2022-12-01T07:26:42.799Z,3.20
2022-12-01T07:27:45.058Z,3.37
2022-12-01T07:28:47.501Z,3.33
2022-12-01T07:29:50.032Z,3.21
2022-12-01T07:30:52.472Z,3.18
2022-12-01T07:31:54.868Z,3.09
2022-12-01T07:32:57.081Z,2.99
2022-12-01T07:33:59.393Z,3.02
2022-12-01T07:35:01.596Z,3.06
2022-12-01T07:36:04.469Z,2.99
2022-12-01T07:37:06.723Z,3.24
2022-12-01T07:38:08.870Z,3.30
2022-12-01T07:39:11.093Z,3.11
2022-12-01T07:40:14.473Z,3.26
2022-12-01T07:41:19.220Z,3.44
2022-12-01T07:42:22.307Z,3.14
2022-12-01T07:43:24.501Z,3.25
2022-12-01T07:44:26.687Z,3.23
2022-12-01T07:45:28.915Z,3.28
2022-12-01T07:46:31.242Z,3.42
2022-12-01T07:47:33.543Z,3.31
2022-12-01T07:48:37.174Z,3.27
2022-12-01T07:49:39.451Z,3.39
2022-12-01T07:50:41.775Z,3.13
2022-12-01T07:51:43.954Z,3.11
2022-12-01T07:52:50.718Z,3.11
2022-12-01T07:53:54.228Z,3.14
2022-12-01T07:54:56.504Z,3.05
2022-12-01T07:56:02.071Z,3.08
2022-12-01T07:57:07.948Z,3.02
2022-12-01T07:58:10.152Z,2.94
2022-12-01T07:59:12.424Z,3.07
2022-12-01T08:00:15.155Z,3.02
2022-12-01T08:01:22.635Z,3.07
2022-12-01T08:02:24.984Z,3.00
2022-12-01T08:03:29.726Z,3.16
2022-12-01T08:04:32.099Z,3.08
2022-12-01T08:05:34.436Z,3.16
2022-12-01T08:06:36.789Z,3.25
2022-12-01T08:07:39.226Z,3.25
2022-12-01T08:08:41.595Z,3.43
2022-12-01T08:09:44.928Z,3.28
2022-12-01T08:10:47.119Z,3.29
2022-12-01T08:11:49.309Z,3.26
2022-12-01T08:12:51.609Z,3.11
2022-12-01T08:13:56.649Z,2.96
2022-12-01T08:14:59.248Z,2.95
2022-12-01T08:16:05.132Z,3.13
2022-12-01T08:17:07.422Z,3.27
2022-12-01T08:18:09.702Z,3.35
2022-12-01T08:19:12.171Z,3.45
2022-12-01T08:20:18.415Z,3.30
2022-12-01T08:21:24.932Z,3.24
2022-12-01T08:22:27.108Z,3.26
2022-12-01T08:23:29.296Z,3.07
2022-12-01T08:24:31.653Z,3.15
2022-12-01T08:25:33.807Z,3.09
2022-12-01T08:26:36.057Z,3.08
2022-12-01T08:27:38.315Z,3.18
2022-12-01T08:28:40.533Z,3.18
2022-12-01T08:29:42.849Z,3.11
2022-12-01T08:30:45.469Z,3.36
2022-12-01T08:31:47.875Z,3.39
2022-12-01T08:32:54.224Z,3.29
2022-12-01T08:33:57.224Z,3.21
2022-12-01T08:34:59.745Z,3.19
2022-12-01T08:36:03.651Z,3.25
2022-12-01T08:37:05.817Z,3.34
2022-12-01T08:38:09.085Z,3.28
2022-12-01T08:39:11.518Z,3.37
2022-12-01T08:40:14.180Z,3.57
2022-12-01T08:41:17.274Z,3.47
2022-12-01T08:42:19.573Z,3.54
2022-12-01T08:43:49.707Z,3.43
2022-12-01T08:44:44.010Z,3.26
2022-12-01T08:45:46.234Z,3.20
2022-12-01T08:46:48.551Z,3.43
2022-12-01T08:47:50.909Z,3.43
2022-12-01T08:48:54.945Z,3.55
2022-12-01T08:49:57.263Z,3.34
2022-12-01T08:51:08.044Z,3.52
2022-12-01T08:52:10.284Z,3.31
2022-12-01T08:53:12.465Z,3.23
2022-12-01T08:54:14.747Z,3.15
2022-12-01T08:55:16.939Z,3.27
2022-12-01T08:56:28.681Z,3.14
2022-12-01T08:57:31.186Z,3.18
2022-12-01T08:58:33.474Z,3.24
2022-12-01T08:59:35.694Z,3.26
2022-12-01T09:00:37.902Z,3.36
2022-12-01T09:01:52.706Z,3.55
2022-12-01T09:02:55.013Z,3.63
2022-12-01T09:04:10.140Z,3.79
2022-12-01T09:05:12.357Z,3.59
2022-12-01T09:06:19.193Z,3.37
2022-12-01T09:07:26.151Z,3.52
2022-12-01T09:08:31.780Z,3.57
2022-12-01T09:09:35.271Z,3.67
2022-12-01T09:10:37.640Z,3.58
2022-12-01T09:11:40.564Z,3.39
2022-12-01T09:12:42.768Z,3.32
2022-12-01T09:13:51.310Z,3.49
2022-12-01T09:14:56.753Z,3.78
2022-12-01T09:16:01.433Z,3.85
2022-12-01T09:17:03.758Z,3.72
2022-12-01T09:18:07.154Z,3.39
2022-12-01T09:19:09.567Z,3.30
2022-12-01T09:20:12.224Z,3.22
2022-12-01T09:21:15.840Z,3.28
2022-12-01T09:22:18.049Z,3.37
2022-12-01T09:23:21.618Z,3.52
2022-12-01T09:24:24.168Z,3.57
2022-12-01T09:25:26.494Z,3.73
2022-12-01T09:26:29.298Z,3.65
2022-12-01T09:27:31.461Z,3.76
2022-12-01T09:28:33.966Z,3.64
2022-12-01T09:29:36.466Z,3.64
2022-12-01T09:30:38.667Z,3.61
2022-12-01T09:31:41.926Z,3.50
2022-12-01T09:32:44.177Z,3.60
2022-12-01T09:33:46.815Z,3.42
2022-12-01T09:34:49.025Z,3.44
2022-12-01T09:35:51.451Z,3.42
2022-12-01T09:36:58.370Z,3.49
2022-12-01T09:38:00.789Z,3.42
2022-12-01T09:39:04.657Z,3.50
2022-12-01T09:40:10.545Z,3.55
2022-12-01T09:41:20.677Z,3.92
2022-12-01T09:42:32.250Z,3.70
2022-12-01T09:43:45.741Z,3.55
2022-12-01T09:44:54.210Z,3.83
2022-12-01T09:46:02.301Z,3.99
2022-12-01T09:47:10.579Z,4.07
2022-12-01T09:48:46.432Z,4.22
2022-12-01T09:50:11.753Z,4.02
2022-12-01T09:51:26.249Z,3.87
2022-12-01T09:52:33.586Z,4.07
2022-12-01T09:53:35.814Z,3.88
2022-12-01T09:54:38.181Z,3.67
2022-12-01T09:55:40.414Z,3.50
2022-12-01T09:56:46.382Z,3.57
2022-12-01T09:57:50.673Z,3.60
2022-12-01T09:58:56.664Z,3.70
2022-12-01T10:00:02.306Z,3.66
2022-12-01T10:01:19.048Z,3.49
2022-12-01T10:02:31.711Z,3.49
2022-12-01T10:03:45.382Z,3.60
2022-12-01T10:04:51.875Z,3.83
2022-12-01T10:07:35.561Z,3.95
2022-12-01T10:08:44.047Z,4.21
2022-12-01T10:09:53.439Z,4.31
2022-12-01T10:11:01.501Z,4.49
2022-12-01T10:12:14.159Z,4.23
2022-12-01T10:13:25.349Z,4.03
2022-12-01T10:14:36.897Z,4.05
2022-12-01T10:15:45.550Z,3.91
2022-12-01T10:17:18.767Z,3.99
2022-12-01T10:18:55.756Z,3.84
2022-12-01T10:20:06.073Z,3.92
2022-12-01T10:21:26.217Z,4.29
2022-12-01T10:22:35.245Z,4.55
2022-12-01T10:23:44.442Z,4.64
2022-12-01T10:24:54.733Z,4.43
2022-12-01T10:25:59.762Z,4.63
2022-12-01T10:27:28.990Z,4.78
2022-12-01T10:28:58.025Z,4.85
2022-12-01T10:30:09.221Z,4.88
2022-12-01T10:31:20.074Z,4.94
2022-12-01T10:33:06.014Z,5.07
2022-12-01T10:34:15.810Z,4.96
2022-12-01T10:35:29.111Z,5.01
2022-12-01T10:36:34.205Z,5.01
2022-12-01T10:37:37.963Z,5.04
2022-12-01T10:38:40.283Z,4.67
2022-12-01T10:39:46.461Z,4.53
2022-12-01T10:40:50.878Z,4.47
2022-12-01T10:41:57.866Z,4.72
2022-12-01T10:43:00.106Z,4.93
2022-12-01T10:44:05.687Z,5.05
2022-12-01T10:45:34.303Z,5.10
2022-12-01T10:46:56.069Z,4.78
2022-12-01T10:48:20.588Z,4.51
2022-12-01T10:49:39.652Z,4.44
2022-12-01T10:50:50.874Z,4.58
2022-12-01T10:51:55.638Z,4.75
2022-12-01T10:52:57.842Z,4.94
2022-12-01T10:54:08.004Z,5.05
2022-12-01T10:55:22.298Z,5.15
2022-12-01T10:56:24.884Z,5.16
2022-12-01T10:57:30.957Z,5.26
2022-12-01T10:58:40.325Z,5.29
2022-12-01T10:59:55.700Z,5.41
2022-12-01T11:01:02.478Z,5.34
2022-12-01T11:02:14.854Z,5.37
2022-12-01T11:03:23.906Z,5.28
2022-12-01T11:04:46.158Z,5.25
2022-12-01T11:05:53.250Z,5.27
2022-12-01T11:06:55.562Z,5.17
2022-12-01T11:07:57.852Z,4.97
2022-12-01T11:09:02.499Z,5.10
2022-12-01T11:10:19.115Z,5.17
2022-12-01T11:11:25.914Z,5.11
2022-12-01T11:12:28.753Z,5.21
2022-12-01T11:13:35.737Z,4.99
2022-12-01T11:14:48.458Z,4.62
2022-12-01T11:16:02.349Z,4.87
2022-12-01T11:17:24.951Z,5.02
2022-12-01T11:18:34.239Z,4.86
2022-12-01T11:19:36.539Z,4.71
2022-12-01T11:20:40.617Z,4.47
2022-12-01T11:21:51.614Z,4.54
2022-12-01T11:23:21.064Z,4.27
2022-12-01T11:24:27.214Z,4.43
2022-12-01T11:25:29.367Z,4.55
2022-12-01T11:26:34.375Z,4.49
2022-12-01T11:27:50.388Z,4.46
2022-12-01T11:28:57.551Z,4.56
2022-12-01T11:30:20.148Z,4.32
2022-12-01T11:31:35.943Z,4.48
2022-12-01T11:32:39.709Z,4.77
2022-12-01T11:33:52.386Z,4.96
2022-12-01T11:35:14.829Z,4.69
2022-12-01T11:36:40.098Z,4.54
2022-12-01T11:39:27.263Z,4.33
2022-12-01T11:40:38.293Z,4.32
2022-12-01T11:41:40.963Z,4.73
2022-12-01T11:42:52.491Z,4.70
2022-12-01T11:45:21.009Z,4.69
2022-12-01T11:46:37.013Z,4.97
2022-12-01T11:48:12.717Z,4.77
2022-12-01T11:49:25.140Z,5.08
2022-12-01T11:50:28.663Z,5.18
2022-12-01T11:51:37.992Z,4.72
2022-12-01T11:52:47.150Z,4.43
2022-12-01T11:53:49.375Z,4.35
2022-12-01T11:55:15.400Z,4.37
2022-12-01T11:56:28.543Z,4.73
2022-12-01T11:57:34.633Z,4.97
2022-12-01T11:58:37.278Z,5.11
2022-12-01T11:59:39.678Z,5.28
2022-12-01T12:00:54.359Z,5.46
2022-12-01T12:02:24.056Z,5.50
2022-12-01T12:03:39.130Z,5.50
2022-12-01T12:05:13.989Z,5.33
2022-12-01T12:07:47.636Z,4.80
2022-12-01T12:09:23.669Z,4.68
2022-12-01T12:10:55.784Z,4.89
2022-12-01T12:12:26.526Z,4.60
2022-12-01T12:13:51.795Z,4.78
2022-12-01T12:15:33.878Z,4.59
2022-12-01T12:17:04.029Z,4.52
2022-12-01T12:18:24.097Z,4.52
2022-12-01T12:20:12.005Z,4.37
2022-12-01T12:21:31.385Z,4.30
2022-12-01T12:23:01.173Z,4.67
2022-12-01T12:24:44.626Z,4.65
2022-12-01T12:26:09.710Z,4.75
2022-12-01T12:27:17.963Z,4.86
2022-12-01T12:28:22.835Z,5.23
2022-12-01T12:29:37.437Z,5.41
2022-12-01T12:30:54.425Z,5.41
2022-12-01T12:32:11.653Z,5.62
2022-12-01T12:33:28.000Z,5.75
2022-12-01T12:34:47.540Z,5.65
2022-12-01T12:35:55.162Z,5.74
2022-12-01T12:37:35.208Z,5.90
2022-12-01T12:38:37.449Z,5.64
2022-12-01T12:39:59.729Z,5.80
2022-12-01T12:41:22.280Z,5.97
2022-12-01T12:42:33.605Z,5.95
2022-12-01T12:43:43.599Z,5.62
2022-12-01T12:45:02.472Z,5.35
2022-12-01T12:46:14.049Z,5.30
2022-12-01T12:47:58.181Z,5.19
2022-12-01T12:49:21.671Z,5.17
2022-12-01T12:50:33.601Z,5.21
2022-12-01T12:51:44.710Z,5.40
2022-12-01T12:52:51.939Z,5.53
2022-12-01T12:54:00.075Z,5.67
2022-12-01T12:55:14.327Z,5.89
2022-12-01T12:56:20.820Z,6.00
2022-12-01T12:57:38.229Z,5.99
2022-12-01T12:59:07.426Z,5.89
2022-12-01T13:00:17.351Z,5.85
2022-12-01T13:01:25.850Z,5.93
2022-12-01T13:02:38.014Z,6.06
2022-12-01T13:04:04.564Z,6.10
2022-12-01T13:05:30.993Z,6.05
2022-12-01T13:06:38.983Z,6.13
2022-12-01T13:07:56.240Z,6.19
2022-12-01T13:09:13.453Z,6.14
2022-12-01T13:10:57.256Z,6.09
2022-12-01T13:12:08.123Z,6.12
2022-12-01T13:13:41.151Z,6.22
2022-12-01T13:14:49.488Z,6.06
2022-12-01T13:15:54.466Z,6.03
2022-12-01T13:17:03.362Z,6.12
2022-12-01T13:18:25.128Z,5.92
2022-12-01T13:19:30.701Z,6.05
2022-12-01T13:20:34.978Z,6.09
2022-12-01T13:21:42.024Z,6.15
2022-12-01T13:22:47.247Z,6.05
2022-12-01T13:23:52.075Z,6.04
2022-12-01T13:24:54.374Z,6.00
2022-12-01T13:26:00.894Z,6.02
2022-12-01T13:27:23.985Z,6.01
2022-12-01T13:28:37.525Z,6.05
2022-12-01T13:29:46.456Z,6.03
2022-12-01T13:31:08.703Z,6.04
2022-12-01T13:32:26.014Z,6.11
2022-12-01T13:33:29.377Z,6.11
2022-12-01T13:34:41.874Z,6.12
2022-12-01T13:35:43.981Z,6.04
2022-12-01T13:36:53.866Z,6.01
2022-12-01T13:38:21.838Z,5.87
2022-12-01T13:39:29.627Z,5.75
2022-12-01T13:40:31.916Z,5.89
2022-12-01T13:41:39.542Z,5.91
2022-12-01T13:42:42.383Z,5.79
2022-12-01T13:44:07.106Z,5.89
2022-12-01T13:45:18.687Z,5.78
2022-12-01T13:46:27.392Z,5.76
2022-12-01T13:47:37.513Z,5.87
2022-12-01T13:48:39.670Z,5.90
2022-12-01T13:49:45.224Z,5.96
2022-12-01T13:50:53.106Z,5.93
2022-12-01T13:52:22.918Z,5.97
2022-12-01T13:53:37.764Z,5.82
2022-12-01T13:54:59.373Z,5.86
2022-12-01T13:56:06.671Z,5.88
2022-12-01T13:57:13.795Z,5.93
2022-12-01T13:58:15.974Z,5.98
2022-12-01T13:59:41.256Z,5.99
2022-12-01T14:00:43.489Z,6.06
2022-12-01T14:01:46.918Z,6.08
2022-12-01T14:03:17.340Z,6.03
2022-12-01T14:04:25.660Z,6.06
2022-12-01T14:05:40.097Z,6.14
2022-12-01T14:06:50.793Z,6.06
2022-12-01T14:07:54.739Z,6.06
2022-12-01T14:09:04.452Z,6.06
2022-12-01T14:10:25.775Z,5.98
2022-12-01T14:11:30.047Z,5.91
2022-12-01T14:12:34.630Z,5.92
2022-12-01T14:13:49.494Z,5.89
2022-12-01T14:14:59.736Z,5.81
2022-12-01T14:16:04.056Z,5.94
2022-12-01T14:17:20.410Z,6.07
2022-12-01T14:18:43.091Z,6.12
2022-12-01T14:19:48.447Z,5.74
2022-12-01T14:20:50.933Z,5.56
2022-12-01T14:21:53.324Z,5.70
2022-12-01T14:23:21.266Z,5.89
2022-12-01T14:24:29.983Z,5.91
2022-12-01T14:25:32.324Z,5.84
2022-12-01T14:26:44.955Z,5.91
2022-12-01T14:27:54.041Z,5.99
2022-12-01T14:28:56.263Z,6.06
2022-12-01T14:30:36.812Z,6.06
2022-12-01T14:31:46.192Z,6.01
2022-12-01T14:32:48.614Z,6.01
2022-12-01T14:34:02.284Z,6.03
2022-12-01T14:35:10.972Z,6.07
2022-12-01T14:36:41.112Z,5.92
2022-12-01T14:37:47.676Z,5.79
2022-12-01T14:38:59.513Z,5.78
2022-12-01T14:40:23.604Z,5.91
2022-12-01T14:41:32.208Z,5.96
2022-12-01T14:42:59.355Z,6.00
2022-12-01T14:44:12.279Z,5.97
2022-12-01T14:45:18.698Z,5.93
2022-12-01T14:46:24.344Z,5.82
2022-12-01T14:47:37.311Z,5.81
2022-12-01T14:48:43.026Z,5.99
2022-12-01T14:49:54.657Z,6.01
2022-12-01T14:51:11.203Z,5.96
2022-12-01T14:52:28.391Z,5.99
2022-12-01T14:53:34.047Z,6.09
2022-12-01T14:54:45.163Z,6.01
2022-12-01T14:56:01.722Z,5.99
2022-12-01T14:57:07.506Z,5.94
2022-12-01T14:58:20.185Z,5.78
2022-12-01T14:59:26.336Z,5.85
2022-12-01T15:00:30.252Z,5.90
2022-12-01T15:01:36.100Z,5.93
2022-12-01T15:02:50.792Z,5.86
2022-12-01T15:04:01.590Z,5.68
2022-12-01T15:05:10.996Z,5.79
2022-12-01T15:06:30.855Z,5.76
2022-12-01T15:07:41.200Z,5.72
2022-12-01T15:08:58.438Z,5.57
2022-12-01T15:10:25.767Z,5.40
2022-12-01T15:11:30.299Z,5.31
2022-12-01T15:12:33.486Z,5.29
2022-12-01T15:14:26.574Z,5.49
2022-12-01T15:15:31.374Z,5.56
2022-12-01T15:16:41.160Z,5.65
2022-12-01T15:17:43.623Z,5.63
2022-12-01T15:18:46.644Z,5.69
2022-12-01T15:19:49.324Z,5.80
2022-12-01T15:20:59.492Z,5.76
2022-12-01T15:22:12.575Z,5.73
2022-12-01T15:23:17.090Z,5.67
2022-12-01T15:24:19.557Z,5.74
2022-12-01T15:25:23.310Z,5.72
2022-12-01T15:26:29.877Z,5.73
2022-12-01T15:27:32.854Z,5.76
2022-12-01T15:28:35.906Z,5.65
2022-12-01T15:29:45.586Z,5.61
2022-12-01T15:30:51.855Z,5.58
2022-12-01T15:31:57.852Z,5.56
2022-12-01T15:33:00.924Z,5.60
2022-12-01T15:34:03.662Z,5.60
2022-12-01T15:35:21.838Z,5.34
2022-12-01T15:36:25.315Z,5.39
2022-12-01T15:37:30.658Z,5.43
2022-12-01T15:38:36.153Z,5.58
2022-12-01T15:39:47.307Z,5.68
2022-12-01T15:41:21.076Z,5.75
2022-12-01T15:42:26.690Z,5.70
2022-12-01T15:43:40.087Z,5.75
2022-12-01T15:44:42.649Z,5.73
2022-12-01T15:45:49.330Z,5.77
2022-12-01T15:46:51.766Z,5.78
2022-12-01T15:47:59.334Z,5.81
2022-12-01T15:49:27.645Z,5.64
2022-12-01T15:50:44.556Z,5.56
2022-12-01T15:51:50.355Z,5.65
2022-12-01T15:52:52.806Z,5.69
2022-12-01T15:54:00.447Z,5.75
2022-12-01T15:55:05.220Z,5.74
2022-12-01T15:56:09.904Z,5.83
2022-12-01T15:57:17.087Z,5.77
2022-12-01T15:58:23.696Z,5.78
2022-12-01T15:59:43.917Z,5.71
2022-12-01T16:00:59.416Z,5.77
2022-12-01T16:02:20.064Z,5.74
2022-12-01T16:03:22.470Z,5.71
2022-12-01T16:04:28.509Z,5.65
2022-12-01T16:05:33.218Z,5.60
2022-12-01T16:06:38.262Z,5.61
2022-12-01T16:09:07.546Z,5.46
2022-12-01T16:10:32.013Z,5.55
2022-12-01T16:11:34.701Z,5.53
2022-12-01T16:12:37.133Z,5.53
2022-12-01T16:13:49.752Z,5.57
2022-12-01T16:15:01.552Z,5.32
2022-12-01T16:16:26.812Z,5.37
2022-12-01T16:17:47.684Z,5.29
2022-12-01T16:18:59.910Z,5.27
2022-12-01T16:20:34.187Z,5.34
2022-12-01T16:22:10.088Z,5.48
2022-12-01T16:23:24.640Z,5.54
2022-12-01T16:24:34.242Z,5.58
2022-12-01T16:25:45.338Z,5.56
2022-12-01T16:26:57.569Z,5.57
2022-12-01T16:28:00.477Z,5.60
2022-12-01T16:29:02.926Z,5.66
2022-12-01T16:30:19.805Z,5.63
2022-12-01T16:31:22.811Z,5.64
2022-12-01T16:32:44.039Z,5.69
2022-12-01T16:33:46.898Z,5.54
2022-12-01T16:34:52.672Z,5.60
2022-12-01T16:35:55.702Z,5.64
2022-12-01T16:36:58.138Z,5.52
2022-12-01T16:38:11.195Z,5.56
2022-12-01T16:39:14.507Z,5.58
2022-12-01T16:40:17.079Z,5.53
2022-12-01T16:41:36.513Z,5.35
2022-12-01T16:42:40.760Z,5.41
2022-12-01T16:43:59.429Z,5.44
2022-12-01T16:45:07.977Z,5.27
2022-12-01T16:46:13.393Z,5.06
2022-12-01T16:47:17.629Z,5.09
2022-12-01T16:48:20.725Z,5.15
2022-12-01T16:49:23.208Z,5.31
2022-12-01T16:50:25.927Z,5.34
2022-12-01T16:51:35.411Z,5.42
2022-12-01T16:52:45.800Z,5.47
2022-12-01T16:53:51.055Z,5.42
2022-12-01T16:54:53.837Z,5.47
2022-12-01T16:55:58.831Z,5.42
2022-12-01T16:57:01.309Z,5.44
2022-12-01T16:58:03.802Z,5.47
2022-12-01T16:59:06.137Z,5.54
2022-12-01T17:00:09.621Z,5.46
2022-12-01T17:01:12.650Z,5.44
2022-12-01T17:02:15.432Z,5.35
2022-12-01T17:03:20.502Z,5.32
2022-12-01T17:04:22.869Z,5.39
2022-12-01T17:05:25.686Z,5.46
2022-12-01T17:06:28.448Z,5.57
2022-12-01T17:07:31.026Z,5.36
2022-12-01T17:08:34.210Z,5.12
2022-12-01T17:09:36.746Z,5.19
2022-12-01T17:10:41.213Z,5.17
2022-12-01T17:11:43.855Z,5.09
2022-12-01T17:12:47.601Z,5.14
2022-12-01T17:13:50.141Z,5.20
2022-12-01T17:14:52.690Z,5.25
2022-12-01T17:15:55.810Z,5.26
2022-12-01T17:16:58.687Z,5.34
2022-12-01T17:18:01.430Z,5.46
2022-12-01T17:19:04.354Z,5.51
2022-12-01T17:20:08.509Z,5.49
2022-12-01T17:21:11.821Z,5.52
2022-12-01T17:22:14.116Z,5.52
2022-12-01T17:23:16.309Z,5.50